sensor_id;sensor_type;location;lat;lon;timestamp;temperature;humidity
3868;DHT22;1949;48.152;11.528;2023-06-14T00:01:00;24.70;25.30
3868;DHT22;1949;48.152;11.528;2023-06-14T00:03:28;24.70;25.30
3868;DHT22;1949;48.152;11.528;2023-06-14T00:05:57;24.70;25.30
3868;DHT22;1949;48.152;11.528;2023-06-14T00:08:23;24.70;25.40
3868;DHT22;1949;48.152;11.528;2023-06-14T00:10:51;24.60;25.30
3868;DHT22;1949;48.152;11.528;2023-06-14T00:13:17;24.70;25.40
3868;DHT22;1949;48.152;11.528;2023-06-14T00:15:43;24.60;25.40
3868;DHT22;1949;48.152;11.528;2023-06-14T00:18:09;24.60;25.40
3868;DHT22;1949;48.152;11.528;2023-06-14T00:20:37;24.50;25.40
3868;DHT22;1949;48.152;11.528;2023-06-14T00:23:03;24.60;25.50
3868;DHT22;1949;48.152;11.528;2023-06-14T00:25:31;24.50;25.50
3868;DHT22;1949;48.152;11.528;2023-06-14T00:27:57;24.50;25.50
3868;DHT22;1949;48.152;11.528;2023-06-14T00:30:24;24.50;25.60
3868;DHT22;1949;48.152;11.528;2023-06-14T00:32:50;24.50;25.60
3868;DHT22;1949;48.152;11.528;2023-06-14T00:35:16;24.50;25.60
3868;DHT22;1949;48.152;11.528;2023-06-14T00:37:42;24.40;25.60
3868;DHT22;1949;48.152;11.528;2023-06-14T00:40:08;24.50;25.70
3868;DHT22;1949;48.152;11.528;2023-06-14T00:42:34;24.40;25.70
3868;DHT22;1949;48.152;11.528;2023-06-14T00:45:00;24.40;25.70
3868;DHT22;1949;48.152;11.528;2023-06-14T00:47:26;24.40;25.80
3868;DHT22;1949;48.152;11.528;2023-06-14T00:49:53;24.40;25.80
3868;DHT22;1949;48.152;11.528;2023-06-14T00:52:19;24.30;25.80
3868;DHT22;1949;48.152;11.528;2023-06-14T00:54:46;24.40;25.90
3868;DHT22;1949;48.152;11.528;2023-06-14T00:57:12;24.30;25.80
3868;DHT22;1949;48.152;11.528;2023-06-14T00:59:43;24.30;25.90
3868;DHT22;1949;48.152;11.528;2023-06-14T01:02:09;24.30;25.90
3868;DHT22;1949;48.152;11.528;2023-06-14T01:04:37;24.30;26.00
3868;DHT22;1949;48.152;11.528;2023-06-14T01:13:46;24.20;26.00
3868;DHT22;1949;48.152;11.528;2023-06-14T01:15:53;24.20;26.10
3868;DHT22;1949;48.152;11.528;2023-06-14T01:18:19;24.20;26.20
3868;DHT22;1949;48.152;11.528;2023-06-14T01:20:47;24.20;26.30
3868;DHT22;1949;48.152;11.528;2023-06-14T01:23:20;24.10;26.30
3868;DHT22;1949;48.152;11.528;2023-06-14T01:25:47;24.10;26.40
3868;DHT22;1949;48.152;11.528;2023-06-14T01:28:16;24.10;26.50
3868;DHT22;1949;48.152;11.528;2023-06-14T01:30:44;24.00;26.60
3868;DHT22;1949;48.152;11.528;2023-06-14T01:33:14;24.00;26.60
3868;DHT22;1949;48.152;11.528;2023-06-14T01:35:47;24.00;26.70
3868;DHT22;1949;48.152;11.528;2023-06-14T01:38:14;24.00;26.80
3868;DHT22;1949;48.152;11.528;2023-06-14T01:40:41;24.00;26.70
3868;DHT22;1949;48.152;11.528;2023-06-14T01:43:08;24.00;26.60
3868;DHT22;1949;48.152;11.528;2023-06-14T01:45:36;24.00;26.60
3868;DHT22;1949;48.152;11.528;2023-06-14T01:48:02;24.00;26.70
3868;DHT22;1949;48.152;11.528;2023-06-14T01:50:31;23.90;26.60
3868;DHT22;1949;48.152;11.528;2023-06-14T01:52:59;23.90;26.70
3868;DHT22;1949;48.152;11.528;2023-06-14T01:55:27;23.90;26.70
3868;DHT22;1949;48.152;11.528;2023-06-14T01:57:53;23.90;26.70
3868;DHT22;1949;48.152;11.528;2023-06-14T02:00:22;23.80;26.60
3868;DHT22;1949;48.152;11.528;2023-06-14T02:02:48;23.80;26.70
3868;DHT22;1949;48.152;11.528;2023-06-14T02:05:18;23.80;26.70
3868;DHT22;1949;48.152;11.528;2023-06-14T02:07:44;23.70;26.70
3868;DHT22;1949;48.152;11.528;2023-06-14T02:10:17;23.70;26.80
3868;DHT22;1949;48.152;11.528;2023-06-14T02:12:44;23.70;26.80
3868;DHT22;1949;48.152;11.528;2023-06-14T02:15:10;23.70;26.80
3868;DHT22;1949;48.152;11.528;2023-06-14T02:17:44;23.70;26.80
3868;DHT22;1949;48.152;11.528;2023-06-14T02:20:10;23.70;26.80
3868;DHT22;1949;48.152;11.528;2023-06-14T02:22:36;23.70;26.90
3868;DHT22;1949;48.152;11.528;2023-06-14T02:25:03;23.60;26.90
3868;DHT22;1949;48.152;11.528;2023-06-14T02:27:29;23.60;26.90
3868;DHT22;1949;48.152;11.528;2023-06-14T02:29:56;23.60;26.70
3868;DHT22;1949;48.152;11.528;2023-06-14T02:32:22;23.50;26.70
3868;DHT22;1949;48.152;11.528;2023-06-14T02:34:50;23.40;26.80
3868;DHT22;1949;48.152;11.528;2023-06-14T02:37:16;23.40;26.90
3868;DHT22;1949;48.152;11.528;2023-06-14T02:39:43;23.30;26.90
3868;DHT22;1949;48.152;11.528;2023-06-14T02:42:10;23.30;27.10
3868;DHT22;1949;48.152;11.528;2023-06-14T02:44:37;23.30;27.10
3868;DHT22;1949;48.152;11.528;2023-06-14T02:47:05;23.30;27.10
3868;DHT22;1949;48.152;11.528;2023-06-14T02:49:30;23.30;27.20
3868;DHT22;1949;48.152;11.528;2023-06-14T02:51:59;23.30;27.10
3868;DHT22;1949;48.152;11.528;2023-06-14T02:54:25;23.40;27.20
3868;DHT22;1949;48.152;11.528;2023-06-14T02:56:51;23.40;27.20
3868;DHT22;1949;48.152;11.528;2023-06-14T02:59:16;23.40;27.20
3868;DHT22;1949;48.152;11.528;2023-06-14T03:01:42;23.40;27.30
3868;DHT22;1949;48.152;11.528;2023-06-14T03:04:10;23.40;27.40
3868;DHT22;1949;48.152;11.528;2023-06-14T03:06:37;23.40;27.40
3868;DHT22;1949;48.152;11.528;2023-06-14T03:09:03;23.40;27.50
3868;DHT22;1949;48.152;11.528;2023-06-14T03:11:33;23.40;27.50
3868;DHT22;1949;48.152;11.528;2023-06-14T03:13:59;23.30;27.50
3868;DHT22;1949;48.152;11.528;2023-06-14T03:16:30;23.30;27.60
3868;DHT22;1949;48.152;11.528;2023-06-14T03:18:57;23.30;27.60
3868;DHT22;1949;48.152;11.528;2023-06-14T03:21:22;23.30;27.60
3868;DHT22;1949;48.152;11.528;2023-06-14T03:23:50;23.30;27.70
3868;DHT22;1949;48.152;11.528;2023-06-14T03:26:21;23.30;27.80
3868;DHT22;1949;48.152;11.528;2023-06-14T03:28:58;23.30;28.00
3868;DHT22;1949;48.152;11.528;2023-06-14T03:31:24;23.30;28.00
3868;DHT22;1949;48.152;11.528;2023-06-14T03:33:55;23.30;28.10
3868;DHT22;1949;48.152;11.528;2023-06-14T03:36:22;23.20;28.20
3868;DHT22;1949;48.152;11.528;2023-06-14T03:38:53;23.20;28.20
3868;DHT22;1949;48.152;11.528;2023-06-14T03:41:20;23.20;28.30
3868;DHT22;1949;48.152;11.528;2023-06-14T03:43:52;23.20;28.40
3868;DHT22;1949;48.152;11.528;2023-06-14T03:46:40;23.20;28.40
3868;DHT22;1949;48.152;11.528;2023-06-14T03:49:08;23.20;28.30
3868;DHT22;1949;48.152;11.528;2023-06-14T03:51:34;23.20;28.50
3868;DHT22;1949;48.152;11.528;2023-06-14T03:54:06;23.20;28.50
3868;DHT22;1949;48.152;11.528;2023-06-14T03:56:32;23.20;28.70
3868;DHT22;1949;48.152;11.528;2023-06-14T03:58:59;23.10;28.60
3868;DHT22;1949;48.152;11.528;2023-06-14T04:01:25;23.10;28.70
3868;DHT22;1949;48.152;11.528;2023-06-14T04:04:00;23.10;28.70
3868;DHT22;1949;48.152;11.528;2023-06-14T04:06:28;23.10;28.80
3868;DHT22;1949;48.152;11.528;2023-06-14T04:09:01;23.10;28.80
3868;DHT22;1949;48.152;11.528;2023-06-14T04:11:30;23.10;28.80
3868;DHT22;1949;48.152;11.528;2023-06-14T04:14:02;23.10;28.90
3868;DHT22;1949;48.152;11.528;2023-06-14T04:16:37;23.10;29.00
3868;DHT22;1949;48.152;11.528;2023-06-14T04:19:03;23.10;29.00
3868;DHT22;1949;48.152;11.528;2023-06-14T04:21:31;23.10;29.00
3868;DHT22;1949;48.152;11.528;2023-06-14T04:24:08;23.10;29.00
3868;DHT22;1949;48.152;11.528;2023-06-14T04:26:43;23.10;29.00
3868;DHT22;1949;48.152;11.528;2023-06-14T04:29:19;23.10;29.00
3868;DHT22;1949;48.152;11.528;2023-06-14T04:31:45;23.10;28.90
3868;DHT22;1949;48.152;11.528;2023-06-14T04:34:13;23.10;28.90
3868;DHT22;1949;48.152;11.528;2023-06-14T04:36:45;23.10;28.90
3868;DHT22;1949;48.152;11.528;2023-06-14T04:39:19;23.10;28.80
3868;DHT22;1949;48.152;11.528;2023-06-14T04:41:46;23.00;28.80
3868;DHT22;1949;48.152;11.528;2023-06-14T04:44:12;22.90;28.80
3868;DHT22;1949;48.152;11.528;2023-06-14T04:46:38;22.90;28.90
3868;DHT22;1949;48.152;11.528;2023-06-14T04:49:15;22.90;28.90
3868;DHT22;1949;48.152;11.528;2023-06-14T04:51:45;22.90;28.90
3868;DHT22;1949;48.152;11.528;2023-06-14T04:54:13;22.90;28.80
3868;DHT22;1949;48.152;11.528;2023-06-14T04:56:41;22.80;28.70
3868;DHT22;1949;48.152;11.528;2023-06-14T04:59:08;22.80;28.70
3868;DHT22;1949;48.152;11.528;2023-06-14T05:01:34;22.80;28.80
3868;DHT22;1949;48.152;11.528;2023-06-14T05:04:01;22.70;28.80
3868;DHT22;1949;48.152;11.528;2023-06-14T05:06:27;22.70;28.80
3868;DHT22;1949;48.152;11.528;2023-06-14T05:08:56;22.70;28.80
3868;DHT22;1949;48.152;11.528;2023-06-14T05:11:22;22.70;28.90
3868;DHT22;1949;48.152;11.528;2023-06-14T05:13:49;22.70;29.00
3868;DHT22;1949;48.152;11.528;2023-06-14T05:16:17;22.70;29.00
3868;DHT22;1949;48.152;11.528;2023-06-14T05:18:45;22.70;29.00
3868;DHT22;1949;48.152;11.528;2023-06-14T05:21:13;22.70;29.10
3868;DHT22;1949;48.152;11.528;2023-06-14T05:23:38;22.60;29.00
3868;DHT22;1949;48.152;11.528;2023-06-14T05:26:04;22.60;29.10
3868;DHT22;1949;48.152;11.528;2023-06-14T05:28:32;22.60;29.20
3868;DHT22;1949;48.152;11.528;2023-06-14T05:30:59;22.60;29.20
3868;DHT22;1949;48.152;11.528;2023-06-14T05:33:26;22.60;29.30
3868;DHT22;1949;48.152;11.528;2023-06-14T05:35:52;22.60;29.20
3868;DHT22;1949;48.152;11.528;2023-06-14T05:38:17;22.60;29.20
3868;DHT22;1949;48.152;11.528;2023-06-14T05:40:43;22.70;29.30
3868;DHT22;1949;48.152;11.528;2023-06-14T06:09:53;21.20;28.70
3868;DHT22;1949;48.152;11.528;2023-06-14T06:12:19;22.30;31.40
3868;DHT22;1949;48.152;11.528;2023-06-14T06:14:49;22.50;30.80
3868;DHT22;1949;48.152;11.528;2023-06-14T06:17:15;22.60;30.50
3868;DHT22;1949;48.152;11.528;2023-06-14T06:19:43;22.70;30.20
3868;DHT22;1949;48.152;11.528;2023-06-14T06:22:14;22.80;30.00
3868;DHT22;1949;48.152;11.528;2023-06-14T06:24:49;22.80;30.00
3868;DHT22;1949;48.152;11.528;2023-06-14T06:27:15;22.90;30.00
3868;DHT22;1949;48.152;11.528;2023-06-14T06:29:42;22.90;30.00
3868;DHT22;1949;48.152;11.528;2023-06-14T06:32:11;22.90;30.00
3868;DHT22;1949;48.152;11.528;2023-06-14T06:34:37;23.00;30.00
3868;DHT22;1949;48.152;11.528;2023-06-14T06:37:03;23.00;30.00
3868;DHT22;1949;48.152;11.528;2023-06-14T06:39:29;23.10;29.90
3868;DHT22;1949;48.152;11.528;2023-06-14T06:41:55;23.10;29.90
3868;DHT22;1949;48.152;11.528;2023-06-14T06:44:20;23.20;29.80
3868;DHT22;1949;48.152;11.528;2023-06-14T06:46:46;23.20;29.80
3868;DHT22;1949;48.152;11.528;2023-06-14T06:49:22;23.10;29.80
3868;DHT22;1949;48.152;11.528;2023-06-14T06:52:04;23.20;30.00
3868;DHT22;1949;48.152;11.528;2023-06-14T06:54:32;23.20;30.00
3868;DHT22;1949;48.152;11.528;2023-06-14T06:56:59;23.20;29.90
3868;DHT22;1949;48.152;11.528;2023-06-14T06:59:27;23.20;29.90
3868;DHT22;1949;48.152;11.528;2023-06-14T07:01:54;23.30;29.90
3868;DHT22;1949;48.152;11.528;2023-06-14T07:04:19;23.30;29.80
3868;DHT22;1949;48.152;11.528;2023-06-14T07:06:46;23.30;29.80
3868;DHT22;1949;48.152;11.528;2023-06-14T07:09:13;23.40;30.30
3868;DHT22;1949;48.152;11.528;2023-06-14T07:11:43;23.40;29.80
3868;DHT22;1949;48.152;11.528;2023-06-14T07:14:09;23.50;29.90
3868;DHT22;1949;48.152;11.528;2023-06-14T07:16:35;23.50;29.90
3868;DHT22;1949;48.152;11.528;2023-06-14T07:19:02;23.50;29.80
3868;DHT22;1949;48.152;11.528;2023-06-14T07:21:28;23.60;29.90
3868;DHT22;1949;48.152;11.528;2023-06-14T07:23:55;23.50;29.80
3868;DHT22;1949;48.152;11.528;2023-06-14T07:26:21;23.60;29.90
3868;DHT22;1949;48.152;11.528;2023-06-14T07:28:48;23.60;29.90
3868;DHT22;1949;48.152;11.528;2023-06-14T07:31:15;23.60;29.90
3868;DHT22;1949;48.152;11.528;2023-06-14T07:33:42;23.60;29.80
3868;DHT22;1949;48.152;11.528;2023-06-14T07:36:08;23.60;29.80
3868;DHT22;1949;48.152;11.528;2023-06-14T07:38:34;23.70;29.90
3868;DHT22;1949;48.152;11.528;2023-06-14T07:41:00;23.70;29.90
3868;DHT22;1949;48.152;11.528;2023-06-14T07:43:27;23.70;29.90
3868;DHT22;1949;48.152;11.528;2023-06-14T07:45:53;23.80;30.00
3868;DHT22;1949;48.152;11.528;2023-06-14T07:48:18;23.80;30.00
3868;DHT22;1949;48.152;11.528;2023-06-14T07:50:46;23.80;29.90
3868;DHT22;1949;48.152;11.528;2023-06-14T07:53:14;23.80;29.90
3868;DHT22;1949;48.152;11.528;2023-06-14T07:55:41;23.90;30.00
3868;DHT22;1949;48.152;11.528;2023-06-14T07:58:08;24.00;29.90
3868;DHT22;1949;48.152;11.528;2023-06-14T08:00:34;24.00;29.90
3868;DHT22;1949;48.152;11.528;2023-06-14T08:03:16;24.00;29.70
3868;DHT22;1949;48.152;11.528;2023-06-14T08:05:43;24.00;29.60
3868;DHT22;1949;48.152;11.528;2023-06-14T08:08:08;24.00;29.50
3868;DHT22;1949;48.152;11.528;2023-06-14T08:10:34;24.00;29.60
3868;DHT22;1949;48.152;11.528;2023-06-14T08:13:01;24.00;29.50
3868;DHT22;1949;48.152;11.528;2023-06-14T08:15:29;24.00;29.50
3868;DHT22;1949;48.152;11.528;2023-06-14T08:17:55;24.10;29.50
3868;DHT22;1949;48.152;11.528;2023-06-14T08:20:24;24.10;29.40
3868;DHT22;1949;48.152;11.528;2023-06-14T08:22:57;24.10;29.80
3868;DHT22;1949;48.152;11.528;2023-06-14T08:25:25;24.10;29.60
3868;DHT22;1949;48.152;11.528;2023-06-14T08:27:55;24.10;29.30
3868;DHT22;1949;48.152;11.528;2023-06-14T08:30:21;24.10;29.30
3868;DHT22;1949;48.152;11.528;2023-06-14T08:32:49;24.10;29.20
3868;DHT22;1949;48.152;11.528;2023-06-14T08:35:15;24.20;29.20
3868;DHT22;1949;48.152;11.528;2023-06-14T08:37:41;24.20;29.20
3868;DHT22;1949;48.152;11.528;2023-06-14T08:40:19;24.20;29.70
3868;DHT22;1949;48.152;11.528;2023-06-14T08:42:53;24.20;29.50
3868;DHT22;1949;48.152;11.528;2023-06-14T08:45:20;24.30;29.50
3868;DHT22;1949;48.152;11.528;2023-06-14T08:47:48;24.30;29.30
3868;DHT22;1949;48.152;11.528;2023-06-14T08:50:25;24.30;29.30
3868;DHT22;1949;48.152;11.528;2023-06-14T08:53:01;24.30;29.00
3868;DHT22;1949;48.152;11.528;2023-06-14T08:55:29;24.40;29.00
3868;DHT22;1949;48.152;11.528;2023-06-14T08:57:57;24.40;29.00
3868;DHT22;1949;48.152;11.528;2023-06-14T09:00:26;24.40;29.00
3868;DHT22;1949;48.152;11.528;2023-06-14T09:02:53;24.40;29.00
3868;DHT22;1949;48.152;11.528;2023-06-14T09:05:25;24.40;28.80
3868;DHT22;1949;48.152;11.528;2023-06-14T09:07:52;24.50;28.70
3868;DHT22;1949;48.152;11.528;2023-06-14T09:10:18;24.50;28.60
3868;DHT22;1949;48.152;11.528;2023-06-14T09:12:44;24.50;28.70
3868;DHT22;1949;48.152;11.528;2023-06-14T09:15:10;24.50;28.70
3868;DHT22;1949;48.152;11.528;2023-06-14T09:17:36;24.50;28.70
3868;DHT22;1949;48.152;11.528;2023-06-14T09:20:03;24.50;28.50
3868;DHT22;1949;48.152;11.528;2023-06-14T09:22:33;24.50;28.40
3868;DHT22;1949;48.152;11.528;2023-06-14T09:24:59;24.50;28.40
3868;DHT22;1949;48.152;11.528;2023-06-14T09:27:26;24.50;28.40
3868;DHT22;1949;48.152;11.528;2023-06-14T09:29:52;24.50;28.50
3868;DHT22;1949;48.152;11.528;2023-06-14T09:32:23;24.50;28.50
3868;DHT22;1949;48.152;11.528;2023-06-14T09:34:49;24.50;28.40
3868;DHT22;1949;48.152;11.528;2023-06-14T09:37:31;24.50;28.50
3868;DHT22;1949;48.152;11.528;2023-06-14T09:39:58;24.60;28.60
3868;DHT22;1949;48.152;11.528;2023-06-14T09:42:25;24.60;28.50
3868;DHT22;1949;48.152;11.528;2023-06-14T09:44:55;24.60;28.50
3868;DHT22;1949;48.152;11.528;2023-06-14T09:47:22;24.60;28.40
3868;DHT22;1949;48.152;11.528;2023-06-14T09:49:50;24.60;28.50
3868;DHT22;1949;48.152;11.528;2023-06-14T09:52:18;24.70;28.50
3868;DHT22;1949;48.152;11.528;2023-06-14T09:54:45;24.70;28.40
3868;DHT22;1949;48.152;11.528;2023-06-14T09:57:22;24.70;28.40
3868;DHT22;1949;48.152;11.528;2023-06-14T09:59:53;24.70;28.40
3868;DHT22;1949;48.152;11.528;2023-06-14T10:05:03;24.70;28.50
3868;DHT22;1949;48.152;11.528;2023-06-14T10:07:52;24.80;28.40
3868;DHT22;1949;48.152;11.528;2023-06-14T10:10:19;24.80;28.50
3868;DHT22;1949;48.152;11.528;2023-06-14T10:12:45;24.80;28.50
3868;DHT22;1949;48.152;11.528;2023-06-14T10:15:19;24.80;28.50
3868;DHT22;1949;48.152;11.528;2023-06-14T10:23:27;24.90;28.60
3868;DHT22;1949;48.152;11.528;2023-06-14T10:25:57;24.90;28.60
3868;DHT22;1949;48.152;11.528;2023-06-14T10:28:23;24.90;28.60
3868;DHT22;1949;48.152;11.528;2023-06-14T10:33:32;25.00;28.60
3868;DHT22;1949;48.152;11.528;2023-06-14T10:41:28;25.00;28.60
3868;DHT22;1949;48.152;11.528;2023-06-14T10:46:53;25.00;28.60
3868;DHT22;1949;48.152;11.528;2023-06-14T10:52:14;25.00;28.60
3868;DHT22;1949;48.152;11.528;2023-06-14T10:57:39;25.00;28.60
3868;DHT22;1949;48.152;11.528;2023-06-14T11:00:06;25.00;28.60
3868;DHT22;1949;48.152;11.528;2023-06-14T11:05:53;25.10;28.60
3868;DHT22;1949;48.152;11.528;2023-06-14T11:11:07;25.00;28.50
3868;DHT22;1949;48.152;11.528;2023-06-14T11:13:41;25.00;28.50
3868;DHT22;1949;48.152;11.528;2023-06-14T11:16:13;25.00;28.50
3868;DHT22;1949;48.152;11.528;2023-06-14T11:18:39;25.00;28.50
3868;DHT22;1949;48.152;11.528;2023-06-14T11:21:06;25.10;28.50
3868;DHT22;1949;48.152;11.528;2023-06-14T11:23:35;25.00;28.40
3868;DHT22;1949;48.152;11.528;2023-06-14T11:26:01;25.10;28.40
3868;DHT22;1949;48.152;11.528;2023-06-14T11:28:40;25.10;28.20
3868;DHT22;1949;48.152;11.528;2023-06-14T11:31:07;25.10;28.10
3868;DHT22;1949;48.152;11.528;2023-06-14T11:33:33;25.10;27.80
3868;DHT22;1949;48.152;11.528;2023-06-14T11:36:06;25.10;27.80
3868;DHT22;1949;48.152;11.528;2023-06-14T11:38:37;25.10;27.90
3868;DHT22;1949;48.152;11.528;2023-06-14T11:41:04;25.10;27.90
3868;DHT22;1949;48.152;11.528;2023-06-14T11:43:31;25.20;27.70
3868;DHT22;1949;48.152;11.528;2023-06-14T11:46:00;25.10;27.30
3868;DHT22;1949;48.152;11.528;2023-06-14T11:48:41;25.20;27.50
3868;DHT22;1949;48.152;11.528;2023-06-14T11:51:09;25.20;27.60
3868;DHT22;1949;48.152;11.528;2023-06-14T11:53:36;25.20;27.50
3868;DHT22;1949;48.152;11.528;2023-06-14T11:56:03;25.20;27.30
3868;DHT22;1949;48.152;11.528;2023-06-14T11:58:29;25.30;27.30
3868;DHT22;1949;48.152;11.528;2023-06-14T12:00:56;25.30;27.20
3868;DHT22;1949;48.152;11.528;2023-06-14T12:03:25;25.30;27.30
3868;DHT22;1949;48.152;11.528;2023-06-14T12:06:10;25.30;27.20
3868;DHT22;1949;48.152;11.528;2023-06-14T12:08:43;25.40;27.20
3868;DHT22;1949;48.152;11.528;2023-06-14T12:11:11;25.50;27.10
3868;DHT22;1949;48.152;11.528;2023-06-14T12:13:52;25.50;26.90
3868;DHT22;1949;48.152;11.528;2023-06-14T12:16:20;25.50;26.90
3868;DHT22;1949;48.152;11.528;2023-06-14T12:18:56;25.60;27.00
3868;DHT22;1949;48.152;11.528;2023-06-14T12:21:26;25.60;26.90
3868;DHT22;1949;48.152;11.528;2023-06-14T12:23:54;25.70;26.90
3868;DHT22;1949;48.152;11.528;2023-06-14T12:26:26;25.80;26.90
3868;DHT22;1949;48.152;11.528;2023-06-14T12:29:01;25.90;26.80
3868;DHT22;1949;48.152;11.528;2023-06-14T12:31:27;26.00;26.80
3868;DHT22;1949;48.152;11.528;2023-06-14T12:33:55;26.10;26.80
3868;DHT22;1949;48.152;11.528;2023-06-14T12:36:20;26.20;26.60
3868;DHT22;1949;48.152;11.528;2023-06-14T12:38:51;26.30;26.60
3868;DHT22;1949;48.152;11.528;2023-06-14T12:41:21;26.20;26.50
3868;DHT22;1949;48.152;11.528;2023-06-14T12:43:49;26.20;26.40
3868;DHT22;1949;48.152;11.528;2023-06-14T12:46:28;26.20;26.30
3868;DHT22;1949;48.152;11.528;2023-06-14T12:48:54;26.20;26.40
3868;DHT22;1949;48.152;11.528;2023-06-14T12:51:21;26.30;26.90
3868;DHT22;1949;48.152;11.528;2023-06-14T12:53:48;26.30;26.40
3868;DHT22;1949;48.152;11.528;2023-06-14T12:56:15;26.40;26.40
3868;DHT22;1949;48.152;11.528;2023-06-14T12:58:42;26.50;26.40
3868;DHT22;1949;48.152;11.528;2023-06-14T13:01:14;26.60;26.30
3868;DHT22;1949;48.152;11.528;2023-06-14T13:03:40;26.70;26.00
3868;DHT22;1949;48.152;11.528;2023-06-14T13:06:06;26.70;26.10
3868;DHT22;1949;48.152;11.528;2023-06-14T13:08:32;26.90;26.20
3868;DHT22;1949;48.152;11.528;2023-06-14T13:10:58;26.90;26.10
3868;DHT22;1949;48.152;11.528;2023-06-14T13:13:24;27.00;26.00
3868;DHT22;1949;48.152;11.528;2023-06-14T13:15:50;27.10;25.90
3868;DHT22;1949;48.152;11.528;2023-06-14T13:18:23;27.30;25.70
3868;DHT22;1949;48.152;11.528;2023-06-14T13:20:51;27.40;25.80
3868;DHT22;1949;48.152;11.528;2023-06-14T13:23:17;27.50;25.60
3868;DHT22;1949;48.152;11.528;2023-06-14T13:25:43;27.60;25.50
3868;DHT22;1949;48.152;11.528;2023-06-14T13:28:08;27.60;25.40
3868;DHT22;1949;48.152;11.528;2023-06-14T13:30:34;27.70;25.40
3868;DHT22;1949;48.152;11.528;2023-06-14T13:33:00;27.70;25.20
3868;DHT22;1949;48.152;11.528;2023-06-14T13:35:27;27.90;25.20
3868;DHT22;1949;48.152;11.528;2023-06-14T13:37:53;27.90;25.10
3868;DHT22;1949;48.152;11.528;2023-06-14T13:40:19;28.00;25.10
3868;DHT22;1949;48.152;11.528;2023-06-14T13:42:46;28.10;25.00
3868;DHT22;1949;48.152;11.528;2023-06-14T13:45:13;28.10;24.90
3868;DHT22;1949;48.152;11.528;2023-06-14T13:47:39;28.20;24.80
3868;DHT22;1949;48.152;11.528;2023-06-14T13:50:08;28.40;24.80
3868;DHT22;1949;48.152;11.528;2023-06-14T13:52:34;28.40;24.60
3868;DHT22;1949;48.152;11.528;2023-06-14T13:55:02;28.50;24.60
3868;DHT22;1949;48.152;11.528;2023-06-14T13:57:29;28.60;24.70
3868;DHT22;1949;48.152;11.528;2023-06-14T13:59:55;28.60;24.50
3868;DHT22;1949;48.152;11.528;2023-06-14T14:02:29;28.70;24.60
3868;DHT22;1949;48.152;11.528;2023-06-14T14:04:55;28.80;24.50
3868;DHT22;1949;48.152;11.528;2023-06-14T14:07:22;28.80;24.20
3868;DHT22;1949;48.152;11.528;2023-06-14T14:09:49;28.90;24.30
3868;DHT22;1949;48.152;11.528;2023-06-14T14:12:15;29.00;24.20
3868;DHT22;1949;48.152;11.528;2023-06-14T14:14:41;29.00;24.20
3868;DHT22;1949;48.152;11.528;2023-06-14T14:17:07;29.10;24.10
3868;DHT22;1949;48.152;11.528;2023-06-14T14:19:33;29.10;24.00
3868;DHT22;1949;48.152;11.528;2023-06-14T14:21:58;29.20;24.00
3868;DHT22;1949;48.152;11.528;2023-06-14T14:24:24;29.20;23.80
3868;DHT22;1949;48.152;11.528;2023-06-14T14:26:52;29.20;23.90
3868;DHT22;1949;48.152;11.528;2023-06-14T14:29:19;29.30;23.90
3868;DHT22;1949;48.152;11.528;2023-06-14T14:31:45;29.40;23.90
3868;DHT22;1949;48.152;11.528;2023-06-14T14:34:11;29.40;23.80
3868;DHT22;1949;48.152;11.528;2023-06-14T14:36:38;29.40;23.90
3868;DHT22;1949;48.152;11.528;2023-06-14T14:39:08;29.30;23.60
3868;DHT22;1949;48.152;11.528;2023-06-14T14:41:34;29.20;23.80
3868;DHT22;1949;48.152;11.528;2023-06-14T14:44:00;29.00;23.80
3868;DHT22;1949;48.152;11.528;2023-06-14T14:46:27;28.80;23.80
3868;DHT22;1949;48.152;11.528;2023-06-14T14:48:53;28.70;23.70
3868;DHT22;1949;48.152;11.528;2023-06-14T14:51:20;28.50;23.90
3868;DHT22;1949;48.152;11.528;2023-06-14T14:53:46;28.50;24.60
3868;DHT22;1949;48.152;11.528;2023-06-14T14:56:11;28.40;24.20
3868;DHT22;1949;48.152;11.528;2023-06-14T14:58:37;28.30;24.20
3868;DHT22;1949;48.152;11.528;2023-06-14T15:01:03;28.30;24.30
3868;DHT22;1949;48.152;11.528;2023-06-14T15:03:31;28.20;24.30
3868;DHT22;1949;48.152;11.528;2023-06-14T15:05:57;28.10;24.40
3868;DHT22;1949;48.152;11.528;2023-06-14T15:08:22;28.10;24.60
3868;DHT22;1949;48.152;11.528;2023-06-14T15:10:50;28.30;24.60
3868;DHT22;1949;48.152;11.528;2023-06-14T15:13:16;28.40;24.40
3868;DHT22;1949;48.152;11.528;2023-06-14T15:15:42;28.40;24.20
3868;DHT22;1949;48.152;11.528;2023-06-14T15:18:08;28.40;24.20
3868;DHT22;1949;48.152;11.528;2023-06-14T15:20:35;28.30;24.20
3868;DHT22;1949;48.152;11.528;2023-06-14T15:23:00;28.20;24.20
3868;DHT22;1949;48.152;11.528;2023-06-14T15:25:29;28.20;24.30
3868;DHT22;1949;48.152;11.528;2023-06-14T15:27:56;28.10;24.30
3868;DHT22;1949;48.152;11.528;2023-06-14T15:30:22;28.00;24.40
3868;DHT22;1949;48.152;11.528;2023-06-14T15:32:50;28.00;24.40
3868;DHT22;1949;48.152;11.528;2023-06-14T15:35:17;28.00;24.40
3868;DHT22;1949;48.152;11.528;2023-06-14T15:37:47;28.10;24.40
3868;DHT22;1949;48.152;11.528;2023-06-14T15:40:13;28.20;24.20
3868;DHT22;1949;48.152;11.528;2023-06-14T15:42:40;28.30;24.20
3868;DHT22;1949;48.152;11.528;2023-06-14T15:45:06;28.40;24.20
3868;DHT22;1949;48.152;11.528;2023-06-14T15:47:32;28.30;24.10
3868;DHT22;1949;48.152;11.528;2023-06-14T15:49:57;28.30;24.10
3868;DHT22;1949;48.152;11.528;2023-06-14T15:52:23;28.30;24.10
3868;DHT22;1949;48.152;11.528;2023-06-14T15:54:49;28.20;24.10
3868;DHT22;1949;48.152;11.528;2023-06-14T15:57:15;28.20;24.10
3868;DHT22;1949;48.152;11.528;2023-06-14T15:59:41;28.20;24.00
3868;DHT22;1949;48.152;11.528;2023-06-14T16:02:07;28.10;24.00
3868;DHT22;1949;48.152;11.528;2023-06-14T16:04:33;28.10;24.00
3868;DHT22;1949;48.152;11.528;2023-06-14T16:06:58;28.20;24.20
3868;DHT22;1949;48.152;11.528;2023-06-14T16:09:24;28.20;24.20
3868;DHT22;1949;48.152;11.528;2023-06-14T16:11:50;28.30;24.20
3868;DHT22;1949;48.152;11.528;2023-06-14T16:14:15;28.40;24.20
3868;DHT22;1949;48.152;11.528;2023-06-14T16:16:41;28.40;24.20
3868;DHT22;1949;48.152;11.528;2023-06-14T16:19:07;28.50;24.20
3868;DHT22;1949;48.152;11.528;2023-06-14T16:21:33;28.50;24.10
3868;DHT22;1949;48.152;11.528;2023-06-14T16:24:05;28.60;24.20
3868;DHT22;1949;48.152;11.528;2023-06-14T16:26:31;28.70;24.20
3868;DHT22;1949;48.152;11.528;2023-06-14T16:28:57;28.70;24.10
3868;DHT22;1949;48.152;11.528;2023-06-14T16:31:22;28.70;24.10
3868;DHT22;1949;48.152;11.528;2023-06-14T16:33:48;28.70;24.00
3868;DHT22;1949;48.152;11.528;2023-06-14T16:36:21;28.80;24.10
3868;DHT22;1949;48.152;11.528;2023-06-14T16:38:47;28.80;24.10
3868;DHT22;1949;48.152;11.528;2023-06-14T16:41:13;28.80;24.20
3868;DHT22;1949;48.152;11.528;2023-06-14T16:43:39;28.90;24.10
3868;DHT22;1949;48.152;11.528;2023-06-14T16:46:05;28.90;24.20
3868;DHT22;1949;48.152;11.528;2023-06-14T16:48:31;28.90;24.00
3868;DHT22;1949;48.152;11.528;2023-06-14T16:50:57;28.90;24.00
3868;DHT22;1949;48.152;11.528;2023-06-14T16:53:22;28.80;24.00